Time;durP1;ratioP1;P1;durP2;ratioP2;P2;SDS_P1;SDS_P2;PMS_P1;PMS_P2;Temp;Humidity;BMP_temperature;BMP_pressure;BME280_temperature;BME280_humidity;BME280_pressure;Samples;Min_cycle;Max_cycle;Signal;HPM_P1;HPM_P2
2023/12/01 00:02:11;;;;;;;2.97;1.80;;;;;;;10.12;57.00;96498.94;4426221;32;20119;-76
2023/12/01 00:04:38;;;;;;;4.12;1.90;;;;;;;10.24;56.19;96494.75;4426007;32;20113;-76
2023/12/01 00:07:05;;;;;;;2.75;1.62;;;;;;;9.59;58.24;96498.97;4426214;32;20101;-76
2023/12/01 00:09:33;;;;;;;5.18;2.10;;;;;;;9.38;58.93;96496.00;4426248;32;20081;-76
2023/12/01 00:12:00;;;;;;;3.55;1.75;;;;;;;9.78;58.29;96491.72;4425857;32;20082;-77
2023/12/01 00:14:27;;;;;;;3.33;1.70;;;;;;;9.55;58.76;96493.16;4426261;32;20519;-77
2023/12/01 00:16:54;;;;;;;4.30;1.95;;;;;;;9.48;59.17;96499.66;4426129;32;20142;-76
2023/12/01 00:19:21;;;;;;;6.07;2.00;;;;;;;9.18;60.08;96504.94;4425854;32;20165;-76
2023/12/01 00:21:48;;;;;;;4.40;2.08;;;;;;;8.58;61.84;96511.13;4426089;32;20132;-76
2023/12/01 00:24:15;;;;;;;4.53;1.98;;;;;;;8.04;62.65;96512.56;4426244;32;20457;-77
2023/12/01 00:26:43;;;;;;;5.00;1.95;;;;;;;7.75;64.83;96509.87;4425484;32;20110;-76
2023/12/01 00:29:10;;;;;;;2.28;1.37;;;;;;;8.63;62.60;96505.72;4426214;32;20085;-76
2023/12/01 00:31:37;;;;;;;3.47;1.73;;;;;;;8.76;61.98;96498.09;4426065;32;20123;-76
2023/12/01 00:34:04;;;;;;;4.03;1.80;;;;;;;8.46;62.88;96499.00;4425926;32;20423;-76
2023/12/01 00:36:32;;;;;;;5.03;1.87;;;;;;;8.48;62.98;96506.59;4425946;32;20416;-76
2023/12/01 00:39:00;;;;;;;3.50;1.87;;;;;;;8.69;62.92;96501.03;4425822;32;20094;-76
2023/12/01 00:41:27;;;;;;;5.20;1.95;;;;;;;8.52;63.92;96505.53;4425994;32;20081;-76
2023/12/01 00:43:54;;;;;;;4.28;1.92;;;;;;;8.12;64.42;96513.78;4425925;32;20149;-76
2023/12/01 00:46:21;;;;;;;3.58;1.83;;;;;;;7.88;65.93;96509.22;4425472;32;20109;-76
2023/12/01 00:48:48;;;;;;;4.90;2.12;;;;;;;8.75;63.27;96522.16;4426009;32;20172;-76
2023/12/01 00:51:17;;;;;;;5.65;2.35;;;;;;;8.72;63.23;96528.31;4425918;32;20364;-76
2023/12/01 00:53:44;;;;;;;4.87;2.15;;;;;;;7.82;67.12;96528.34;4425783;32;20098;-76
2023/12/01 00:56:13;;;;;;;6.15;2.22;;;;;;;8.89;63.52;96545.31;4425714;32;20192;-76
2023/12/01 00:58:40;;;;;;;5.70;2.17;;;;;;;8.94;62.65;96553.59;4412088;32;20103;-76
2023/12/01 01:01:08;;;;;;;6.22;2.40;;;;;;;8.08;65.79;96547.41;4425520;32;22009;-76
2023/12/01 01:03:35;;;;;;;5.97;2.30;;;;;;;7.78;68.05;96555.13;4425936;32;20153;-76
2023/12/01 01:06:03;;;;;;;6.32;2.28;;;;;;;7.79;67.88;96546.50;4425707;32;20108;-76
2023/12/01 01:08:30;;;;;;;6.12;2.60;;;;;;;7.66;69.20;96550.66;4424338;32;20152;-76
2023/12/01 01:10:57;;;;;;;7.20;2.83;;;;;;;7.20;70.66;96547.97;4424629;32;20120;-76
2023/12/01 01:13:26;;;;;;;5.60;2.45;;;;;;;8.40;65.96;96543.88;4425823;32;20097;-76
2023/12/01 01:15:54;;;;;;;5.68;2.58;;;;;;;7.87;67.58;96539.19;4424104;32;20126;-76
2023/12/01 01:18:21;;;;;;;6.43;2.70;;;;;;;8.43;66.26;96536.91;4425876;32;20116;-76
2023/12/01 01:20:48;;;;;;;7.22;2.65;;;;;;;8.70;65.17;96550.69;4425504;32;20488;-75
2023/12/01 01:23:16;;;;;;;6.75;2.60;;;;;;;9.02;64.33;96553.09;4425674;32;20560;-76
2023/12/01 01:25:43;;;;;;;5.00;2.50;;;;;;;7.88;67.52;96538.28;4425369;32;20148;-76
2023/12/01 01:28:10;;;;;;;5.97;2.55;;;;;;;8.70;64.74;96543.81;4425405;32;20086;-76
2023/12/01 01:30:37;;;;;;;6.95;2.50;;;;;;;9.26;63.69;96543.91;4425703;32;20081;-76
2023/12/01 01:33:04;;;;;;;5.62;2.40;;;;;;;9.63;61.92;96539.88;4425697;32;20448;-76
2023/12/01 01:35:31;;;;;;;6.82;2.55;;;;;;;9.89;60.80;96537.38;4425101;32;20148;-76
2023/12/01 01:37:58;;;;;;;5.72;2.45;;;;;;;10.04;59.65;96537.25;4425698;32;20103;-76
2023/12/01 01:40:25;;;;;;;6.32;2.80;;;;;;;10.29;58.86;96538.25;4425622;32;20097;-76
2023/12/01 01:42:53;;;;;;;6.47;2.70;;;;;;;10.66;56.71;96552.12;4425226;32;20113;-76
2023/12/01 01:45:20;;;;;;;7.68;3.00;;;;;;;10.16;58.29;96543.34;4424844;32;20120;-76
2023/12/01 01:47:47;;;;;;;7.43;2.70;;;;;;;9.55;59.94;96549.81;4425563;32;20096;-76
2023/12/01 01:50:14;;;;;;;6.87;2.70;;;;;;;9.43;60.53;96551.41;4411532;32;20149;-76
2023/12/01 01:52:41;;;;;;;6.60;2.75;;;;;;;9.52;60.59;96544.88;4425603;32;20121;-76
2023/12/01 01:55:09;;;;;;;6.93;2.80;;;;;;;9.97;59.91;96538.56;4411631;32;20127;-76
2023/12/01 01:57:40;;;;;;;5.97;2.60;;;;;;;9.94;59.38;96543.91;4425169;32;20107;-76
2023/12/01 02:00:07;;;;;;;6.22;2.53;;;;;;;10.20;58.76;96547.38;4412177;32;20423;-76
2023/12/01 02:02:35;;;;;;;6.55;2.78;;;;;;;9.35;61.83;96545.06;4425574;32;20154;-76
2023/12/01 02:05:04;;;;;;;6.75;2.67;;;;;;;9.39;62.23;96549.13;4423860;32;20157;-76
2023/12/01 02:07:31;;;;;;;6.37;2.75;;;;;;;9.16;62.77;96548.78;4425506;32;20524;-76
2023/12/01 02:09:58;;;;;;;6.40;2.60;;;;;;;8.60;64.04;96545.28;4425211;32;20137;-75
2023/12/01 02:12:25;;;;;;;6.78;2.47;;;;;;;9.03;63.34;96541.88;4425454;32;20094;-76
2023/12/01 02:14:52;;;;;;;7.20;3.03;;;;;;;10.32;59.25;96531.16;4425288;32;20093;-76
2023/12/01 02:17:19;;;;;;;6.35;2.70;;;;;;;9.71;60.58;96529.09;4425065;32;20093;-76
2023/12/01 02:19:46;;;;;;;6.82;2.67;;;;;;;9.48;61.64;96539.09;4425356;32;20081;-76
2023/12/01 02:22:13;;;;;;;6.47;2.67;;;;;;;9.54;61.58;96535.28;4425260;32;20125;-76
2023/12/01 02:24:40;;;;;;;6.75;2.60;;;;;;;9.41;61.51;96531.84;4411083;32;20132;-76
2023/12/01 02:27:07;;;;;;;5.95;2.60;;;;;;;9.57;61.40;96537.69;4411238;32;20085;-76
2023/12/01 02:29:34;;;;;;;6.28;2.78;;;;;;;9.38;62.02;96535.44;4425383;32;20433;-76
2023/12/01 02:32:01;;;;;;;6.45;2.70;;;;;;;9.48;61.75;96541.66;4424894;32;20486;-76
2023/12/01 02:34:28;;;;;;;7.65;2.60;;;;;;;9.41;61.21;96542.13;4425315;32;20133;-76
2023/12/01 02:36:58;;;;;;;6.82;2.50;;;;;;;9.24;62.35;96535.44;4425046;32;20556;-76
2023/12/01 02:39:25;;;;;;;6.78;2.70;;;;;;;9.36;62.00;96533.84;4424916;32;20136;-76
2023/12/01 02:41:52;;;;;;;6.75;2.83;;;;;;;9.76;61.13;96542.50;4425099;32;20113;-76
2023/12/01 02:44:19;;;;;;;7.05;2.90;;;;;;;9.64;61.33;96541.53;4425255;32;20125;-76
2023/12/01 02:46:46;;;;;;;8.15;3.00;;;;;;;9.27;61.46;96541.25;4424570;32;20089;-76
2023/12/01 02:49:13;;;;;;;7.00;3.05;;;;;;;9.14;62.17;96542.06;4424958;32;20116;-76
2023/12/01 02:51:40;;;;;;;7.12;2.80;;;;;;;8.77;64.50;96541.72;4425140;32;20094;-76
2023/12/01 02:54:08;;;;;;;5.62;2.78;;;;;;;8.35;64.56;96537.34;4424618;32;20475;-76
2023/12/01 02:56:35;;;;;;;7.80;2.85;;;;;;;8.80;64.83;96531.25;4424282;32;20481;-76
2023/12/01 02:59:02;;;;;;;7.15;2.92;;;;;;;8.23;66.58;96541.41;4424153;32;20100;-76
2023/12/01 03:01:29;;;;;;;7.47;2.80;;;;;;;8.27;65.93;96544.62;4424927;32;20117;-76
2023/12/01 03:03:56;;;;;;;6.85;2.83;;;;;;;8.10;67.21;96550.75;4424811;32;20184;-76
2023/12/01 03:06:23;;;;;;;7.78;3.08;;;;;;;6.66;72.32;96529.44;4424543;32;20437;-76
2023/12/01 03:08:50;;;;;;;9.52;2.87;;;;;;;8.07;68.48;96538.88;4424842;32;20143;-76
2023/12/01 03:11:22;;;;;;;7.72;3.03;;;;;;;8.12;68.04;96538.63;4424677;32;20102;-76
2023/12/01 03:13:49;;;;;;;7.80;3.03;;;;;;;8.67;65.83;96540.59;4424429;32;20456;-76
2023/12/01 03:16:16;;;;;;;7.62;3.20;;;;;;;8.19;67.68;96537.38;4424502;32;20500;-76
2023/12/01 03:18:43;;;;;;;6.57;2.90;;;;;;;8.69;65.64;96542.16;4424677;32;20107;-76
2023/12/01 03:21:12;;;;;;;7.18;2.85;;;;;;;8.07;66.70;96545.75;4424340;32;20156;-76
2023/12/01 03:23:42;;;;;;;7.78;3.12;;;;;;;7.84;68.75;96536.78;4424675;32;20155;-76
2023/12/01 03:26:09;;;;;;;7.00;3.03;;;;;;;8.32;67.27;96542.63;4424240;32;20085;-76
2023/12/01 03:28:35;;;;;;;7.90;2.80;;;;;;;8.86;65.36;96546.31;4424231;32;20089;-76
2023/12/01 03:31:03;;;;;;;7.47;2.90;;;;;;;8.74;65.67;96547.06;4424542;32;20166;-76
2023/12/01 03:33:30;;;;;;;7.57;3.10;;;;;;;9.29;63.64;96536.00;4424529;32;20093;-76
2023/12/01 03:35:57;;;;;;;7.93;3.20;;;;;;;8.51;65.42;96532.16;4423908;32;20115;-76
2023/12/01 03:38:24;;;;;;;7.72;3.20;;;;;;;7.98;67.11;96533.47;4424468;32;20386;-76
2023/12/01 03:40:53;;;;;;;7.30;2.95;;;;;;;8.51;65.79;96534.72;4424287;32;20402;-76
2023/12/01 03:43:20;;;;;;;8.20;2.70;;;;;;;8.65;65.77;96529.59;4422866;32;20476;-76
2023/12/01 03:45:47;;;;;;;7.82;2.95;;;;;;;8.84;64.63;96522.44;4424139;32;20124;-76
2023/12/01 03:48:14;;;;;;;7.43;2.95;;;;;;;8.76;64.98;96534.09;4423961;32;20100;-75
2023/12/01 03:50:41;;;;;;;8.18;3.17;;;;;;;9.16;63.32;96523.06;4424310;32;20484;-76
2023/12/01 03:53:08;;;;;;;7.68;2.80;;;;;;;8.74;64.46;96531.63;4424308;32;20113;-76
2023/12/01 03:55:35;;;;;;;7.18;3.05;;;;;;;8.61;64.92;96533.25;4423751;32;20093;-76
2023/12/01 03:58:02;;;;;;;7.80;3.00;;;;;;;9.19;63.14;96532.34;4410478;32;20093;-76
2023/12/01 04:00:32;;;;;;;7.93;3.08;;;;;;;9.25;62.78;96521.66;4424074;32;20441;-76
2023/12/01 04:03:00;;;;;;;6.05;2.62;;;;;;;9.08;62.96;96522.69;4423664;32;20101;-76
2023/12/01 04:05:27;;;;;;;8.38;3.50;;;;;;;9.25;62.88;96519.94;4424054;32;20154;-76
2023/12/01 04:07:54;;;;;;;8.52;3.22;;;;;;;8.58;64.03;96520.56;4424087;32;20073;-76
2023/12/01 04:10:24;;;;;;;8.15;3.33;;;;;;;9.05;63.14;96530.63;4425820;32;20098;-76
2023/12/01 04:12:53;;;;;;;8.27;3.45;;;;;;;9.19;62.86;96534.91;4426283;32;20517;-76
2023/12/01 04:15:24;;;;;;;9.02;3.35;;;;;;;9.72;61.82;96526.41;4426127;32;20136;-76
2023/12/01 04:17:52;;;;;;;7.65;3.08;;;;;;;9.94;60.79;96525.87;4412643;32;20077;-76
2023/12/01 04:20:27;;;;;;;7.80;3.20;;;;;;;10.06;60.40;96516.53;4426242;32;20101;-76
2023/12/01 04:22:59;;;;;;;9.30;3.80;;;;;;;10.03;60.25;96517.56;4426218;32;20108;-77
2023/12/01 04:25:27;;;;;;;8.75;3.50;;;;;;;9.81;61.13;96512.97;4424327;32;20142;-77
2023/12/01 04:27:56;;;;;;;8.32;3.12;;;;;;;9.76;60.62;96512.41;4426200;32;20074;-76
2023/12/01 04:30:24;;;;;;;7.97;2.53;;;;;;;9.76;60.76;96502.09;4412015;32;20113;-77
2023/12/01 04:32:55;;;;;;;9.40;2.80;;;;;;;10.26;59.44;96508.34;4426145;32;20103;-77
2023/12/01 04:35:28;;;;;;;7.03;2.72;;;;;;;9.05;62.22;96520.31;4426029;32;20093;-77
2023/12/01 04:37:56;;;;;;;7.43;2.92;;;;;;;8.86;64.04;96514.62;4412019;32;20077;-77
2023/12/01 04:40:26;;;;;;;6.60;2.67;;;;;;;8.66;64.91;96508.09;4424912;32;20118;-77
2023/12/01 04:42:55;;;;;;;7.18;3.00;;;;;;;8.43;65.68;96517.16;4424896;32;20102;-77
2023/12/01 04:45:24;;;;;;;6.90;3.15;;;;;;;7.97;67.52;96498.38;4425515;32;20101;-77
2023/12/01 04:47:54;;;;;;;8.30;3.58;;;;;;;8.31;66.22;96502.44;4412337;32;20097;-76
2023/12/01 04:50:25;;;;;;;8.43;3.12;;;;;;;7.81;68.57;96501.84;4425978;32;20113;-76
2023/12/01 04:53:01;;;;;;;9.30;3.33;;;;;;;7.78;69.73;96501.19;4424558;32;20128;-76
2023/12/01 04:55:29;;;;;;;7.60;3.22;;;;;;;8.42;67.15;96494.97;4425889;32;20188;-76
2023/12/01 04:57:58;;;;;;;6.85;2.58;;;;;;;7.93;68.93;96497.75;4412203;32;20124;-76
2023/12/01 05:00:26;;;;;;;6.75;2.85;;;;;;;7.52;70.75;96495.75;4412002;32;20160;-76
2023/12/01 05:02:55;;;;;;;6.85;2.85;;;;;;;7.46;71.16;96496.09;4412266;32;20106;-76
2023/12/01 05:05:29;;;;;;;7.12;2.90;;;;;;;6.96;74.32;96509.06;4425411;32;20229;-76
2023/12/01 05:07:58;;;;;;;7.68;2.97;;;;;;;5.42;81.15;96504.78;4412106;32;20103;-76
2023/12/01 05:10:30;;;;;;;5.55;2.37;;;;;;;5.58;83.77;96519.41;4425839;32;20101;-76
2023/12/01 05:13:02;;;;;;;6.68;2.55;;;;;;;6.09;82.19;96504.13;4425531;32;20105;-76
2023/12/01 05:15:31;;;;;;;8.18;3.42;;;;;;;5.63;85.21;96513.16;4425659;32;20089;-76
2023/12/01 05:18:00;;;;;;;7.60;2.90;;;;;;;5.86;83.01;96491.59;4425724;32;20149;-75
2023/12/01 05:20:28;;;;;;;6.10;2.53;;;;;;;5.89;83.76;96500.84;4423652;32;20093;-75
2023/12/01 05:23:00;;;;;;;6.45;2.50;;;;;;;5.55;85.87;96499.91;4425745;32;20133;-75
2023/12/01 05:25:32;;;;;;;7.20;2.62;;;;;;;6.04;81.97;96511.19;4425413;32;20595;-75
2023/12/01 05:28:06;;;;;;;7.05;2.47;;;;;;;6.61;79.90;96511.75;4425306;32;20138;-75
2023/12/01 05:30:34;;;;;;;6.05;2.30;;;;;;;6.28;80.17;96514.28;4425815;32;20113;-76
2023/12/01 05:33:02;;;;;;;7.25;2.53;;;;;;;6.40;81.71;96509.44;4425700;32;20094;-77
2023/12/01 05:35:29;;;;;;;7.37;2.75;;;;;;;5.99;82.33;96509.78;4424077;32;20123;-80
2023/12/01 05:37:57;;;;;;;5.95;2.45;;;;;;;6.21;82.11;96532.59;4423976;32;20160;-81
2023/12/01 05:40:29;;;;;;;6.45;2.83;;;;;;;6.97;78.50;96529.50;4411532;32;20121;-81
2023/12/01 05:42:57;;;;;;;7.20;2.80;;;;;;;8.00;73.05;96540.16;4424320;32;20153;-81
2023/12/01 05:45:27;;;;;;;5.82;2.28;;;;;;;7.97;73.13;96539.47;4425329;32;20090;-81
2023/12/01 05:47:56;;;;;;;6.10;2.47;;;;;;;8.30;72.17;96532.44;4425285;32;20524;-81
2023/12/01 05:50:25;;;;;;;7.12;2.80;;;;;;;7.50;72.98;96535.25;4424690;32;20113;-81
2023/12/01 05:52:54;;;;;;;7.30;3.05;;;;;;;6.53;78.41;96515.59;4424932;32;20128;-81
2023/12/01 05:55:23;;;;;;;6.93;2.60;;;;;;;7.03;76.39;96522.41;4424937;32;20132;-80
2023/12/01 05:57:58;;;;;;;7.53;2.65;;;;;;;6.61;79.03;96527.13;4425555;32;20100;-80
2023/12/01 06:00:29;;;;;;;9.27;3.28;;;;;;;7.18;75.63;96522.41;4425598;32;20097;-80
2023/12/01 06:03:01;;;;;;;7.15;2.80;;;;;;;6.75;77.87;96534.09;4425096;32;20161;-81
2023/12/01 06:05:29;;;;;;;6.82;2.70;;;;;;;7.96;72.37;96525.81;4411422;32;20464;-81
2023/12/01 06:07:58;;;;;;;6.57;2.55;;;;;;;7.94;71.78;96519.94;4425350;32;20530;-81
2023/12/01 06:10:26;;;;;;;6.20;2.30;;;;;;;7.53;73.35;96523.06;4424534;32;20432;-81
2023/12/01 06:12:54;;;;;;;8.57;3.03;;;;;;;5.62;81.82;96511.50;4425443;32;20116;-81
2023/12/01 06:15:21;;;;;;;7.97;2.72;;;;;;;5.52;84.52;96525.63;4423947;32;20456;-80
2023/12/01 06:17:52;;;;;;;7.18;2.78;;;;;;;5.90;82.03;96526.41;4423974;32;20111;-80
2023/12/01 06:20:21;;;;;;;8.55;3.00;;;;;;;5.29;86.08;96526.69;4411974;32;20097;-80
2023/12/01 06:23:05;;;;;;;6.78;2.30;;;;;;;5.76;83.19;96537.28;4411069;32;20136;-81
2023/12/01 06:25:37;;;;;;;5.90;2.35;;;;;;;6.28;81.82;96554.44;4424972;32;20098;-81
2023/12/01 06:28:05;;;;;;;8.38;2.90;;;;;;;5.25;85.71;96543.09;4423849;32;20082;-81
2023/12/01 06:30:34;;;;;;;7.28;2.83;;;;;;;5.21;88.58;96544.12;4424656;32;20437;-81
2023/12/01 06:33:05;;;;;;;6.10;2.20;;;;;;;6.96;77.86;96558.63;4424092;32;20162;-82
2023/12/01 06:35:32;;;;;;;4.80;2.15;;;;;;;5.99;82.71;96531.06;4425069;32;20113;-79
2023/12/01 06:37:59;;;;;;;5.55;1.98;;;;;;;6.47;81.44;96560.28;4424901;32;20187;-81
2023/12/01 06:40:26;;;;;;;5.47;2.35;;;;;;;6.13;79.80;96544.94;4424946;32;20086;-81
2023/12/01 06:42:55;;;;;;;9.20;2.40;;;;;;;5.34;86.39;96559.75;4425332;32;20467;-78
2023/12/01 06:45:26;;;;;;;15.30;2.78;;;;;;;5.92;83.74;96562.97;4424749;32;20100;-78
2023/12/01 06:47:58;;;;;;;7.78;2.78;;;;;;;4.56;90.07;96555.50;4425089;32;20463;-77
2023/12/01 06:50:28;;;;;;;9.50;2.58;;;;;;;5.71;85.81;96559.69;4425041;32;20110;-77
2023/12/01 06:52:59;;;;;;;7.82;2.40;;;;;;;5.84;85.22;96564.22;4424637;32;20097;-78
2023/12/01 06:55:27;;;;;;;6.80;2.40;;;;;;;7.27;77.97;96569.84;4411500;32;20107;-78
2023/12/01 06:57:54;;;;;;;6.93;2.53;;;;;;;6.88;78.20;96565.88;4424477;32;20146;-79
2023/12/01 07:03:03;;;;;;;6.80;2.45;;;;;;;7.39;77.13;96579.44;4424843;32;20090;-78
2023/12/01 07:05:32;;;;;;;6.80;2.22;;;;;;;6.53;78.22;96571.97;4424363;32;20101;-78
2023/12/01 07:08:03;;;;;;;7.30;2.20;;;;;;;6.01;84.41;96562.56;4423562;32;20137;-78
2023/12/01 07:10:34;;;;;;;7.07;2.40;;;;;;;6.73;79.16;96568.41;4424879;32;20155;-79
2023/12/01 07:13:01;;;;;;;2.62;1.35;;;;;;;5.94;83.17;96561.19;4424553;32;20145;-78
2023/12/01 07:15:29;;;;;;;5.53;2.20;;;;;;;4.09;94.00;96532.78;4424533;32;20101;-78
2023/12/01 07:17:57;;;;;;;6.72;2.58;;;;;;;4.35;96.82;96534.25;4424733;32;20089;-78
2023/12/01 07:20:24;;;;;;;6.18;2.33;;;;;;;6.36;83.58;96555.69;4424328;32;20110;-80
2023/12/01 07:22:52;;;;;;;4.82;2.08;;;;;;;4.81;90.51;96543.34;4424564;32;20740;-81
2023/12/01 07:25:23;;;;;;;10.88;2.33;;;;;;;5.23;90.26;96532.94;4418262;32;188656;-81
2023/12/01 07:28:01;;;;;;;5.75;2.25;;;;;;;4.75;93.31;96558.91;4423423;32;20120;-88
2023/12/01 07:30:28;;;;;;;10.90;2.55;;;;;;;6.57;83.57;96556.34;4433921;32;20168;-81
2023/12/01 07:32:56;;;;;;;7.00;2.80;;;;;;;6.21;81.89;96561.59;4414311;32;20121;-82
2023/12/01 07:35:24;;;;;;;7.72;2.78;;;;;;;5.75;86.55;96552.72;4437410;27;20147;-79
2023/12/01 07:37:52;;;;;;;8.07;3.42;;;;;;;5.44;88.07;96543.06;4393759;32;20555;-81
2023/12/01 07:40:21;;;;;;;7.47;3.10;;;;;;;5.29;86.91;96547.16;4393514;32;20102;-82
2023/12/01 07:42:51;;;;;;;9.00;3.53;;;;;;;5.02;92.09;96545.84;4394194;32;20098;-79
2023/12/01 07:45:19;;;;;;;11.25;3.83;;;;;;;5.89;86.70;96539.25;4395359;32;20086;-82
2023/12/01 07:47:48;;;;;;;7.37;3.03;;;;;;;6.18;85.24;96545.56;4382346;32;20082;-81
2023/12/01 07:50:16;;;;;;;12.55;3.70;;;;;;;5.80;85.73;96545.63;4396347;32;20126;-82
2023/12/01 07:52:48;;;;;;;11.75;3.53;;;;;;;5.22;91.46;96544.06;4396174;32;20097;-82
2023/12/01 07:55:15;;;;;;;8.25;2.90;;;;;;;6.05;86.26;96553.81;4397616;32;20568;-79
2023/12/01 07:57:43;;;;;;;7.78;3.20;;;;;;;6.69;83.48;96552.34;4402081;32;20108;-82
2023/12/01 08:00:19;;;;;;;7.47;2.83;;;;;;;6.70;82.83;96555.72;4401497;32;20110;-83
2023/12/01 08:02:47;;;;;;;8.10;3.17;;;;;;;5.76;86.07;96549.25;4405421;32;20251;-83
2023/12/01 08:05:15;;;;;;;8.60;3.03;;;;;;;6.78;83.11;96562.13;4404671;32;20082;-83
2023/12/01 08:07:54;;;;;;;7.10;2.87;;;;;;;6.37;83.78;96559.91;4400323;32;20090;-83
2023/12/01 08:10:27;;;;;;;10.05;3.62;;;;;;;5.36;88.83;96553.66;4386062;32;20070;-82
2023/12/01 08:12:58;;;;;;;9.35;3.12;;;;;;;6.46;83.27;96568.88;4398726;32;20073;-81
2023/12/01 08:18:01;;;;;;;7.97;3.30;;;;;;;5.90;87.25;96569.91;4343525;30;20161;-78
2023/12/01 08:20:29;;;;;;;8.18;3.20;;;;;;;6.81;80.42;96574.81;4388358;32;20109;-78
2023/12/01 08:22:57;;;;;;;8.57;3.28;;;;;;;6.99;80.86;96582.44;4389303;32;20091;-81
2023/12/01 08:25:31;;;;;;;8.18;3.08;;;;;;;5.70;86.51;96564.88;4391329;32;20105;-82
2023/12/01 08:27:59;;;;;;;9.07;3.53;;;;;;;6.32;82.57;96579.00;4377077;32;20094;-82
2023/12/01 08:30:26;;;;;;;5.43;2.30;;;;;;;6.27;84.58;96571.53;4373800;32;20059;-81
2023/12/01 08:32:54;;;;;;;7.65;2.80;;;;;;;6.03;84.54;96572.72;4376236;32;20127;-82
2023/12/01 08:35:24;;;;;;;7.32;2.75;;;;;;;6.66;83.86;96591.78;4376295;32;20091;-81
2023/12/01 08:37:52;;;;;;;9.70;3.17;;;;;;;6.19;84.82;96575.38;4361433;32;20059;-81
2023/12/01 08:40:20;;;;;;;7.80;3.00;;;;;;;6.20;84.76;96575.28;4372880;32;20072;-81
2023/12/01 08:42:53;;;;;;;7.55;2.80;;;;;;;7.49;80.22;96590.88;4374474;32;20078;-81
2023/12/01 08:45:20;;;;;;;7.37;3.00;;;;;;;7.28;78.18;96580.94;4357180;32;20150;-81
2023/12/01 08:47:47;;;;;;;7.70;2.90;;;;;;;5.99;86.52;96573.78;4369256;32;20087;-81
2023/12/01 08:50:17;;;;;;;6.62;2.75;;;;;;;7.29;80.65;96591.09;4366883;32;20123;-81
2023/12/01 08:52:45;;;;;;;7.25;2.67;;;;;;;6.82;81.37;96591.84;4367386;32;20095;-81
2023/12/01 08:55:12;;;;;;;6.53;2.58;;;;;;;8.92;71.97;96611.97;4366070;32;20091;-81
2023/12/01 08:57:39;;;;;;;7.78;3.00;;;;;;;8.28;72.09;96610.53;4374086;32;20063;-81
2023/12/01 09:00:06;;;;;;;10.77;4.70;;;;;;;6.43;83.03;96552.84;4376810;32;20102;-80
2023/12/01 09:02:34;;;;;;;9.88;3.90;;;;;;;7.43;78.91;96574.97;4370290;32;20129;-81
2023/12/01 09:05:02;;;;;;;7.15;2.70;;;;;;;8.19;72.61;96595.63;4374253;32;20103;-80
2023/12/01 09:07:29;;;;;;;8.60;2.72;;;;;;;7.33;76.40;96577.19;4370948;32;20122;-79
2023/12/01 09:09:58;;;;;;;6.32;2.50;;;;;;;5.54;88.93;96564.78;4376674;32;20119;-80
2023/12/01 09:12:26;;;;;;;7.35;2.87;;;;;;;4.86;94.27;96572.06;4372703;32;20080;-80
2023/12/01 09:14:53;;;;;;;8.18;2.42;;;;;;;5.78;90.46;96573.84;4372533;32;20067;-79
2023/12/01 09:17:21;;;;;;;7.57;2.60;;;;;;;5.91;87.63;96568.19;4405875;27;20082;-80
2023/12/01 09:19:49;;;;;;;6.25;2.53;;;;;;;6.43;84.98;96576.72;4401209;32;20133;-81
2023/12/01 09:22:16;;;;;;;10.50;3.10;;;;;;;7.18;82.40;96570.31;4399467;32;20119;-79
2023/12/01 09:24:47;;;;;;;8.13;2.87;;;;;;;6.83;81.37;96561.91;4399666;32;20081;-80
2023/12/01 09:27:14;;;;;;;6.80;2.40;;;;;;;6.88;83.53;96553.06;4409797;32;20437;-83
2023/12/01 09:29:41;;;;;;;8.10;3.08;;;;;;;7.25;80.38;96569.09;4420205;32;20116;-83
2023/12/01 09:32:11;;;;;;;7.75;3.35;;;;;;;7.38;79.37;96559.00;4855168;26;20989;-83
2023/12/01 09:37:34;;;;;;;6.30;2.50;;;;;;;8.08;77.66;96552.53;4530025;26;20165;-82
2023/12/01 09:40:03;;;;;;;6.90;2.40;;;;;;;6.43;84.79;96545.16;4403591;32;20112;-81
2023/12/01 09:42:32;;;;;;;6.30;2.70;;;;;;;7.09;82.71;96545.97;4398450;32;20070;-84
2023/12/01 09:45:01;;;;;;;10.47;3.77;;;;;;;6.91;82.79;96542.66;4425179;27;20084;-80
2023/12/01 09:47:32;;;;;;;7.93;2.87;;;;;;;6.46;83.74;96535.56;4376822;26;20058;-84
2023/12/01 09:50:00;;;;;;;8.50;3.50;;;;;;;6.71;83.26;96544.59;4403133;32;20098;-83
2023/12/01 09:52:28;;;;;;;7.93;3.05;;;;;;;6.15;86.66;96533.69;4418725;32;20108;-84
2023/12/01 09:54:56;;;;;;;6.45;2.03;;;;;;;6.65;84.67;96543.16;4416352;32;20110;-83
2023/12/01 09:57:36;;;;;;;6.15;2.30;;;;;;;7.39;80.81;96545.28;4421105;32;20108;-84
2023/12/01 10:00:10;;;;;;;6.65;2.85;;;;;;;7.10;82.90;96531.41;4497285;26;20049;-80
2023/12/01 10:02:42;;;;;;;9.45;2.90;;;;;;;6.04;88.37;96546.19;4631721;27;20134;-83
2023/12/01 10:05:13;;;;;;;7.87;2.90;;;;;;;6.27;85.91;96552.75;4387162;32;20812;-83
2023/12/01 10:07:41;;;;;;;7.55;3.25;;;;;;;5.43;92.95;96526.06;4414047;32;20055;-83
2023/12/01 10:10:21;;;;;;;5.12;2.20;;;;;;;6.51;86.97;96554.13;4416567;32;20093;-81
2023/12/01 10:12:58;;;;;;;6.20;2.42;;;;;;;5.95;87.84;96516.75;4410377;32;20129;-81
2023/12/01 10:15:27;;;;;;;7.90;2.65;;;;;;;6.83;84.29;96520.91;4409824;32;20107;-81
2023/12/01 10:18:16;;;;;;;6.25;2.42;;;;;;;6.76;83.62;96535.75;4409863;32;20089;-81
2023/12/01 10:21:02;;;;;;;7.82;4.00;;;;;;;7.10;80.73;96505.78;4410129;32;20508;-81
2023/12/01 10:23:33;;;;;;;5.85;2.28;;;;;;;6.55;83.91;96509.47;4410395;32;20129;-81
2023/12/01 10:26:03;;;;;;;5.78;2.22;;;;;;;5.45;89.13;96502.06;4409829;32;20582;-80
2023/12/01 10:28:39;;;;;;;5.12;2.30;;;;;;;5.90;90.60;96505.91;4410535;32;20108;-81
2023/12/01 10:31:07;;;;;;;7.22;2.40;;;;;;;6.59;84.19;96505.88;4410864;32;20145;-81
2023/12/01 10:33:35;;;;;;;5.35;2.05;;;;;;;7.14;83.33;96495.28;4416896;32;20054;-81
2023/12/01 10:36:04;;;;;;;6.85;2.20;;;;;;;7.51;79.42;96493.28;4410745;32;20074;-83
2023/12/01 10:38:35;;;;;;;3.83;1.80;;;;;;;7.53;80.08;96511.97;4424392;32;20081;-84
2023/12/01 10:41:03;;;;;;;5.30;1.85;;;;;;;7.52;80.12;96500.06;4413256;32;20153;-82
2023/12/01 10:43:31;;;;;;;4.78;1.45;;;;;;;8.00;76.42;96518.78;4396305;32;20153;-83
2023/12/01 10:46:03;;;;;;;2.35;1.20;;;;;;;7.70;76.37;96521.31;4410116;32;20108;-82
2023/12/01 10:48:32;;;;;;;11.52;3.62;;;;;;;8.03;75.50;96508.31;4410427;32;20137;-81
2023/12/01 10:51:10;;;;;;;4.05;1.80;;;;;;;7.81;75.83;96496.69;4409706;32;20155;-81
2023/12/01 10:53:40;;;;;;;2.08;1.10;;;;;;;7.14;79.66;96472.19;4397117;32;20173;-82
2023/12/01 10:56:12;;;;;;;7.95;2.60;;;;;;;7.47;78.02;96517.47;4409697;32;20165;-82
2023/12/01 10:58:39;;;;;;;2.45;1.20;;;;;;;6.78;81.17;96481.84;4408694;32;20149;-81
2023/12/01 11:01:07;;;;;;;1.58;0.82;;;;;;;7.30;80.00;96481.63;4397950;32;20113;-81
2023/12/01 11:03:37;;;;;;;1.70;1.10;;;;;;;7.29;79.89;96493.63;4409325;32;20164;-82
2023/12/01 11:06:13;;;;;;;1.33;0.85;;;;;;;7.27;79.84;96486.94;4396110;32;20626;-81
2023/12/01 11:08:55;;;;;;;0.85;0.70;;;;;;;7.36;78.45;96479.56;4408617;32;20082;-82
2023/12/01 11:12:02;;;;;;;1.00;0.80;;;;;;;6.40;81.58;96494.09;4408261;32;20102;-82
2023/12/01 11:14:30;;;;;;;1.77;1.00;;;;;;;7.54;78.80;96495.66;4393276;32;20109;-82
2023/12/01 11:16:57;;;;;;;0.52;0.50;;;;;;;6.40;82.69;96497.47;4412339;32;20113;-81
2023/12/01 11:19:34;;;;;;;1.55;0.90;;;;;;;6.07;86.52;96484.63;4410366;32;20109;-81
2023/12/01 11:22:27;;;;;;;1.30;0.90;;;;;;;5.62;86.41;96487.63;4411536;32;20094;-81
2023/12/01 11:24:56;;;;;;;4.18;1.00;;;;;;;5.60;89.67;96481.78;4412522;32;20098;-80
2023/12/01 11:27:26;;;;;;;1.50;0.60;;;;;;;5.69;88.90;96477.03;4411131;32;20151;-81
2023/12/01 11:30:12;;;;;;;1.33;0.75;;;;;;;5.76;89.09;96482.69;4412015;32;20101;-80
2023/12/01 11:32:40;;;;;;;1.12;0.70;;;;;;;5.48;88.69;96475.50;4397313;32;20137;-80
2023/12/01 11:35:10;;;;;;;3.20;1.27;;;;;;;5.14;92.45;96463.47;4397652;32;20444;-80
2023/12/01 11:40:24;;;;;;;1.23;0.70;;;;;;;5.93;89.20;96469.91;4394917;32;20086;-81
2023/12/01 11:42:51;;;;;;;2.20;1.20;;;;;;;5.52;90.83;96474.44;4396176;32;20094;-80
2023/12/01 11:45:41;;;;;;;2.42;1.20;;;;;;;5.22;91.55;96476.75;4395589;32;20114;-80
2023/12/01 11:48:09;;;;;;;3.42;1.30;;;;;;;5.28;92.92;96466.22;4409675;32;20105;-80
2023/12/01 11:50:38;;;;;;;2.17;1.40;;;;;;;5.25;92.92;96476.59;4410831;32;20082;-80
2023/12/01 11:53:05;;;;;;;2.30;1.40;;;;;;;5.50;92.33;96464.28;4410735;32;20108;-80
2023/12/01 11:55:33;;;;;;;3.03;1.33;;;;;;;5.94;90.11;96479.25;4410944;32;20116;-80
2023/12/01 11:58:01;;;;;;;3.25;1.23;;;;;;;6.07;86.75;96482.06;4409671;32;20104;-81
2023/12/01 12:00:29;;;;;;;2.55;1.27;;;;;;;6.14;88.18;96485.97;4410517;32;20079;-80
2023/12/01 12:02:57;;;;;;;3.42;1.62;;;;;;;6.27;85.63;96481.91;4411091;32;20540;-80